sensor_id;sensor_type;location;lat;lon;timestamp;temperature;humidity
17795;DHT22;9021;50.882;4.326;2023-06-19T00:00:50;21.00;99.90
17795;DHT22;9021;50.882;4.326;2023-06-19T00:03:16;21.00;99.90
17795;DHT22;9021;50.882;4.326;2023-06-19T00:05:41;21.10;99.90
17795;DHT22;9021;50.882;4.326;2023-06-19T00:08:07;21.10;99.90
17795;DHT22;9021;50.882;4.326;2023-06-19T00:10:32;21.10;99.90
17795;DHT22;9021;50.882;4.326;2023-06-19T00:12:58;21.10;99.90
17795;DHT22;9021;50.882;4.326;2023-06-19T00:15:24;21.10;99.90
17795;DHT22;9021;50.882;4.326;2023-06-19T00:17:49;21.10;99.90
17795;DHT22;9021;50.882;4.326;2023-06-19T00:20:15;21.10;99.90
17795;DHT22;9021;50.882;4.326;2023-06-19T00:22:40;21.00;99.90
17795;DHT22;9021;50.882;4.326;2023-06-19T00:25:06;21.00;99.90
17795;DHT22;9021;50.882;4.326;2023-06-19T00:27:32;21.10;99.90
17795;DHT22;9021;50.882;4.326;2023-06-19T00:29:57;21.10;99.90
17795;DHT22;9021;50.882;4.326;2023-06-19T00:32:28;21.10;99.90
17795;DHT22;9021;50.882;4.326;2023-06-19T00:34:53;21.10;99.90
17795;DHT22;9021;50.882;4.326;2023-06-19T00:37:19;21.10;99.90
17795;DHT22;9021;50.882;4.326;2023-06-19T00:39:45;21.20;99.90
17795;DHT22;9021;50.882;4.326;2023-06-19T00:42:10;21.00;99.90
17795;DHT22;9021;50.882;4.326;2023-06-19T00:44:36;21.00;99.90
17795;DHT22;9021;50.882;4.326;2023-06-19T00:47:02;21.00;99.90
17795;DHT22;9021;50.882;4.326;2023-06-19T00:49:28;21.10;99.90
17795;DHT22;9021;50.882;4.326;2023-06-19T00:51:54;21.10;99.90
17795;DHT22;9021;50.882;4.326;2023-06-19T00:54:20;21.10;99.90
17795;DHT22;9021;50.882;4.326;2023-06-19T00:56:45;21.00;99.90
17795;DHT22;9021;50.882;4.326;2023-06-19T00:59:14;20.90;99.90
17795;DHT22;9021;50.882;4.326;2023-06-19T01:01:40;20.90;99.90
17795;DHT22;9021;50.882;4.326;2023-06-19T01:04:06;20.90;99.90
17795;DHT22;9021;50.882;4.326;2023-06-19T01:06:33;20.90;99.90
17795;DHT22;9021;50.882;4.326;2023-06-19T01:09:07;20.80;99.90
17795;DHT22;9021;50.882;4.326;2023-06-19T01:11:34;20.80;99.90
17795;DHT22;9021;50.882;4.326;2023-06-19T01:14:24;20.80;99.90
17795;DHT22;9021;50.882;4.326;2023-06-19T01:16:47;20.90;99.90
17795;DHT22;9021;50.882;4.326;2023-06-19T01:19:15;20.90;99.90
17795;DHT22;9021;50.882;4.326;2023-06-19T01:21:41;20.80;99.90
17795;DHT22;9021;50.882;4.326;2023-06-19T01:24:06;20.80;99.90
17795;DHT22;9021;50.882;4.326;2023-06-19T01:26:32;20.90;99.90
17795;DHT22;9021;50.882;4.326;2023-06-19T01:28:58;20.80;99.90
17795;DHT22;9021;50.882;4.326;2023-06-19T01:31:25;20.70;99.90
17795;DHT22;9021;50.882;4.326;2023-06-19T01:33:52;20.70;99.90
17795;DHT22;9021;50.882;4.326;2023-06-19T01:36:17;20.70;99.90
17795;DHT22;9021;50.882;4.326;2023-06-19T01:38:44;20.70;99.90
17795;DHT22;9021;50.882;4.326;2023-06-19T01:41:10;20.70;99.90
17795;DHT22;9021;50.882;4.326;2023-06-19T01:43:36;20.70;99.90
17795;DHT22;9021;50.882;4.326;2023-06-19T01:46:02;20.70;99.90
17795;DHT22;9021;50.882;4.326;2023-06-19T01:48:27;20.70;99.90
17795;DHT22;9021;50.882;4.326;2023-06-19T01:50:53;20.70;99.90
17795;DHT22;9021;50.882;4.326;2023-06-19T01:53:18;20.80;99.90
17795;DHT22;9021;50.882;4.326;2023-06-19T01:55:44;20.80;99.90
17795;DHT22;9021;50.882;4.326;2023-06-19T01:58:09;20.80;99.90
17795;DHT22;9021;50.882;4.326;2023-06-19T02:00:35;20.80;99.90
17795;DHT22;9021;50.882;4.326;2023-06-19T02:03:01;20.80;99.90
17795;DHT22;9021;50.882;4.326;2023-06-19T02:05:26;20.80;99.90
17795;DHT22;9021;50.882;4.326;2023-06-19T02:07:52;20.80;99.90
17795;DHT22;9021;50.882;4.326;2023-06-19T02:10:17;20.80;99.90
17795;DHT22;9021;50.882;4.326;2023-06-19T02:12:43;20.80;99.90
17795;DHT22;9021;50.882;4.326;2023-06-19T02:15:08;20.80;99.90
17795;DHT22;9021;50.882;4.326;2023-06-19T02:17:34;20.80;99.90
17795;DHT22;9021;50.882;4.326;2023-06-19T02:19:59;20.90;99.90
17795;DHT22;9021;50.882;4.326;2023-06-19T02:22:25;20.80;99.90
17795;DHT22;9021;50.882;4.326;2023-06-19T02:24:51;20.80;99.90
17795;DHT22;9021;50.882;4.326;2023-06-19T02:27:17;20.90;99.90
17795;DHT22;9021;50.882;4.326;2023-06-19T02:29:42;20.90;99.90
17795;DHT22;9021;50.882;4.326;2023-06-19T02:32:08;20.90;99.90
17795;DHT22;9021;50.882;4.326;2023-06-19T02:34:33;20.80;99.90
17795;DHT22;9021;50.882;4.326;2023-06-19T02:36:59;20.80;99.90
17795;DHT22;9021;50.882;4.326;2023-06-19T02:39:24;20.90;99.90
17795;DHT22;9021;50.882;4.326;2023-06-19T02:41:50;20.80;99.90
17795;DHT22;9021;50.882;4.326;2023-06-19T02:44:15;20.80;99.90
17795;DHT22;9021;50.882;4.326;2023-06-19T02:46:41;20.80;99.90
17795;DHT22;9021;50.882;4.326;2023-06-19T02:49:06;20.70;99.90
17795;DHT22;9021;50.882;4.326;2023-06-19T02:51:32;20.80;99.90
17795;DHT22;9021;50.882;4.326;2023-06-19T02:53:57;20.90;99.90
17795;DHT22;9021;50.882;4.326;2023-06-19T02:56:23;20.90;99.90
17795;DHT22;9021;50.882;4.326;2023-06-19T02:58:49;20.90;99.90
17795;DHT22;9021;50.882;4.326;2023-06-19T03:01:14;20.90;99.90
17795;DHT22;9021;50.882;4.326;2023-06-19T03:03:40;21.00;99.90
17795;DHT22;9021;50.882;4.326;2023-06-19T03:06:06;21.10;99.90
17795;DHT22;9021;50.882;4.326;2023-06-19T03:08:35;21.00;99.90
17795;DHT22;9021;50.882;4.326;2023-06-19T03:11:01;21.00;99.90
17795;DHT22;9021;50.882;4.326;2023-06-19T03:13:31;21.00;99.90
17795;DHT22;9021;50.882;4.326;2023-06-19T03:15:57;21.00;99.90
17795;DHT22;9021;50.882;4.326;2023-06-19T03:18:22;21.00;99.90
17795;DHT22;9021;50.882;4.326;2023-06-19T03:20:48;21.20;99.90
17795;DHT22;9021;50.882;4.326;2023-06-19T03:23:13;21.20;99.90
17795;DHT22;9021;50.882;4.326;2023-06-19T03:25:39;21.20;99.90
17795;DHT22;9021;50.882;4.326;2023-06-19T03:28:08;21.10;99.90
17795;DHT22;9021;50.882;4.326;2023-06-19T03:30:33;21.00;99.90
17795;DHT22;9021;50.882;4.326;2023-06-19T03:32:59;21.00;99.90
17795;DHT22;9021;50.882;4.326;2023-06-19T03:35:24;20.90;99.90
17795;DHT22;9021;50.882;4.326;2023-06-19T03:37:50;20.90;99.90
17795;DHT22;9021;50.882;4.326;2023-06-19T03:40:15;21.00;99.90
17795;DHT22;9021;50.882;4.326;2023-06-19T03:42:41;21.00;99.90
17795;DHT22;9021;50.882;4.326;2023-06-19T03:45:06;20.90;99.90
17795;DHT22;9021;50.882;4.326;2023-06-19T03:47:32;21.00;99.90
17795;DHT22;9021;50.882;4.326;2023-06-19T03:49:58;20.90;99.90
17795;DHT22;9021;50.882;4.326;2023-06-19T03:52:23;20.90;99.90
17795;DHT22;9021;50.882;4.326;2023-06-19T03:54:49;21.00;99.90
17795;DHT22;9021;50.882;4.326;2023-06-19T03:57:15;20.90;99.90
17795;DHT22;9021;50.882;4.326;2023-06-19T03:59:40;20.80;99.90
17795;DHT22;9021;50.882;4.326;2023-06-19T04:02:05;20.80;99.90
17795;DHT22;9021;50.882;4.326;2023-06-19T04:04:31;20.70;99.90
17795;DHT22;9021;50.882;4.326;2023-06-19T04:06:56;20.70;99.90
17795;DHT22;9021;50.882;4.326;2023-06-19T04:09:24;20.80;99.90
17795;DHT22;9021;50.882;4.326;2023-06-19T04:11:50;20.80;99.90
17795;DHT22;9021;50.882;4.326;2023-06-19T04:14:15;20.70;99.90
17795;DHT22;9021;50.882;4.326;2023-06-19T04:16:41;21.80;99.90
17795;DHT22;9021;50.882;4.326;2023-06-19T04:19:06;20.60;99.90
17795;DHT22;9021;50.882;4.326;2023-06-19T04:21:32;20.70;99.90
17795;DHT22;9021;50.882;4.326;2023-06-19T04:23:57;20.60;99.90
17795;DHT22;9021;50.882;4.326;2023-06-19T04:26:23;20.70;99.90
17795;DHT22;9021;50.882;4.326;2023-06-19T04:28:49;20.70;99.90
17795;DHT22;9021;50.882;4.326;2023-06-19T04:31:15;20.60;99.90
17795;DHT22;9021;50.882;4.326;2023-06-19T04:33:43;20.60;99.90
17795;DHT22;9021;50.882;4.326;2023-06-19T04:36:09;20.40;99.90
17795;DHT22;9021;50.882;4.326;2023-06-19T04:38:35;20.30;99.90
17795;DHT22;9021;50.882;4.326;2023-06-19T04:41:00;20.40;99.90
17795;DHT22;9021;50.882;4.326;2023-06-19T04:43:26;20.50;99.90
17795;DHT22;9021;50.882;4.326;2023-06-19T04:45:51;20.60;99.90
17795;DHT22;9021;50.882;4.326;2023-06-19T04:48:17;20.60;99.90
17795;DHT22;9021;50.882;4.326;2023-06-19T04:50:42;20.60;99.90
17795;DHT22;9021;50.882;4.326;2023-06-19T04:53:08;20.60;99.90
17795;DHT22;9021;50.882;4.326;2023-06-19T04:55:33;20.60;99.90
17795;DHT22;9021;50.882;4.326;2023-06-19T04:57:59;20.60;99.90
17795;DHT22;9021;50.882;4.326;2023-06-19T05:00:24;20.50;99.90
17795;DHT22;9021;50.882;4.326;2023-06-19T05:02:50;20.40;99.90
17795;DHT22;9021;50.882;4.326;2023-06-19T05:05:16;20.30;99.90
17795;DHT22;9021;50.882;4.326;2023-06-19T05:07:42;20.30;99.90
17795;DHT22;9021;50.882;4.326;2023-06-19T05:10:07;20.40;99.90
17795;DHT22;9021;50.882;4.326;2023-06-19T05:12:34;20.40;99.90
17795;DHT22;9021;50.882;4.326;2023-06-19T05:15:00;20.50;99.90
17795;DHT22;9021;50.882;4.326;2023-06-19T05:17:25;20.60;99.90
17795;DHT22;9021;50.882;4.326;2023-06-19T05:19:51;20.70;99.90
17795;DHT22;9021;50.882;4.326;2023-06-19T05:22:16;20.60;99.90
17795;DHT22;9021;50.882;4.326;2023-06-19T05:24:44;20.50;99.90
17795;DHT22;9021;50.882;4.326;2023-06-19T05:27:10;20.70;99.90
17795;DHT22;9021;50.882;4.326;2023-06-19T05:29:35;20.60;99.90
17795;DHT22;9021;50.882;4.326;2023-06-19T05:32:01;20.70;99.90
17795;DHT22;9021;50.882;4.326;2023-06-19T05:34:26;20.90;99.90
17795;DHT22;9021;50.882;4.326;2023-06-19T05:36:52;21.00;99.90
17795;DHT22;9021;50.882;4.326;2023-06-19T05:39:17;21.00;99.90
17795;DHT22;9021;50.882;4.326;2023-06-19T05:41:44;21.00;99.90
17795;DHT22;9021;50.882;4.326;2023-06-19T05:44:11;20.70;99.90
17795;DHT22;9021;50.882;4.326;2023-06-19T05:46:40;20.60;99.90
17795;DHT22;9021;50.882;4.326;2023-06-19T05:49:05;20.50;99.90
17795;DHT22;9021;50.882;4.326;2023-06-19T05:51:31;20.50;99.90
17795;DHT22;9021;50.882;4.326;2023-06-19T05:53:56;20.50;99.90
17795;DHT22;9021;50.882;4.326;2023-06-19T05:56:26;20.40;99.90
17795;DHT22;9021;50.882;4.326;2023-06-19T05:58:51;20.40;99.90
17795;DHT22;9021;50.882;4.326;2023-06-19T06:01:20;20.40;99.90
17795;DHT22;9021;50.882;4.326;2023-06-19T06:03:45;20.40;99.90
17795;DHT22;9021;50.882;4.326;2023-06-19T06:06:11;20.40;99.90
17795;DHT22;9021;50.882;4.326;2023-06-19T06:08:36;20.40;99.90
17795;DHT22;9021;50.882;4.326;2023-06-19T06:11:02;20.40;99.90
17795;DHT22;9021;50.882;4.326;2023-06-19T06:13:28;20.50;99.90
17795;DHT22;9021;50.882;4.326;2023-06-19T06:15:53;20.60;99.90
17795;DHT22;9021;50.882;4.326;2023-06-19T06:18:19;20.70;99.90
17795;DHT22;9021;50.882;4.326;2023-06-19T06:20:44;20.60;99.90
17795;DHT22;9021;50.882;4.326;2023-06-19T06:23:10;20.60;99.90
17795;DHT22;9021;50.882;4.326;2023-06-19T06:25:35;20.60;99.90
17795;DHT22;9021;50.882;4.326;2023-06-19T06:28:01;20.50;99.90
17795;DHT22;9021;50.882;4.326;2023-06-19T06:30:26;20.60;99.90
17795;DHT22;9021;50.882;4.326;2023-06-19T06:32:53;20.60;99.90
17795;DHT22;9021;50.882;4.326;2023-06-19T06:35:19;20.70;99.90
17795;DHT22;9021;50.882;4.326;2023-06-19T06:37:44;20.70;99.90
17795;DHT22;9021;50.882;4.326;2023-06-19T06:40:11;20.70;99.90
17795;DHT22;9021;50.882;4.326;2023-06-19T06:42:37;20.60;99.90
17795;DHT22;9021;50.882;4.326;2023-06-19T06:45:04;20.70;99.90
17795;DHT22;9021;50.882;4.326;2023-06-19T06:47:30;20.70;99.90
17795;DHT22;9021;50.882;4.326;2023-06-19T06:49:56;20.50;99.90
17795;DHT22;9021;50.882;4.326;2023-06-19T06:52:21;20.50;99.90
17795;DHT22;9021;50.882;4.326;2023-06-19T06:54:47;20.70;99.90
17795;DHT22;9021;50.882;4.326;2023-06-19T06:57:12;20.80;99.90
17795;DHT22;9021;50.882;4.326;2023-06-19T06:59:38;20.90;99.90
17795;DHT22;9021;50.882;4.326;2023-06-19T07:02:03;20.90;99.90
17795;DHT22;9021;50.882;4.326;2023-06-19T07:04:29;20.80;99.90
17795;DHT22;9021;50.882;4.326;2023-06-19T07:06:54;20.90;99.90
17795;DHT22;9021;50.882;4.326;2023-06-19T07:09:20;20.90;99.90
17795;DHT22;9021;50.882;4.326;2023-06-19T07:11:46;21.00;99.90
17795;DHT22;9021;50.882;4.326;2023-06-19T07:14:12;21.10;99.90
17795;DHT22;9021;50.882;4.326;2023-06-19T07:16:37;21.20;99.90
17795;DHT22;9021;50.882;4.326;2023-06-19T07:19:03;21.30;99.90
17795;DHT22;9021;50.882;4.326;2023-06-19T07:21:28;21.50;99.90
17795;DHT22;9021;50.882;4.326;2023-06-19T07:23:54;21.60;99.90
17795;DHT22;9021;50.882;4.326;2023-06-19T07:26:20;21.80;99.90
17795;DHT22;9021;50.882;4.326;2023-06-19T07:28:46;22.00;99.90
17795;DHT22;9021;50.882;4.326;2023-06-19T07:31:11;22.00;99.90
17795;DHT22;9021;50.882;4.326;2023-06-19T07:33:37;22.30;99.90
17795;DHT22;9021;50.882;4.326;2023-06-19T07:36:02;22.90;99.90
17795;DHT22;9021;50.882;4.326;2023-06-19T07:38:28;23.00;99.90
17795;DHT22;9021;50.882;4.326;2023-06-19T07:40:54;23.10;99.90
17795;DHT22;9021;50.882;4.326;2023-06-19T07:43:19;23.20;99.90
17795;DHT22;9021;50.882;4.326;2023-06-19T07:45:47;23.40;99.90
17795;DHT22;9021;50.882;4.326;2023-06-19T07:48:13;23.30;99.80
17795;DHT22;9021;50.882;4.326;2023-06-19T07:50:38;23.20;99.90
17795;DHT22;9021;50.882;4.326;2023-06-19T07:53:04;23.10;99.90
17795;DHT22;9021;50.882;4.326;2023-06-19T07:55:29;23.20;99.40
17795;DHT22;9021;50.882;4.326;2023-06-19T07:57:55;23.10;99.60
17795;DHT22;9021;50.882;4.326;2023-06-19T08:00:22;23.20;99.60
17795;DHT22;9021;50.882;4.326;2023-06-19T08:02:48;23.40;99.40
17795;DHT22;9021;50.882;4.326;2023-06-19T08:05:13;23.70;98.80
17795;DHT22;9021;50.882;4.326;2023-06-19T08:07:39;24.20;98.10
17795;DHT22;9021;50.882;4.326;2023-06-19T08:10:05;24.90;96.80
17795;DHT22;9021;50.882;4.326;2023-06-19T08:12:31;25.90;95.40
17795;DHT22;9021;50.882;4.326;2023-06-19T08:14:56;26.90;93.40
17795;DHT22;9021;50.882;4.326;2023-06-19T08:17:22;27.00;91.60
17795;DHT22;9021;50.882;4.326;2023-06-19T08:19:47;27.00;91.40
17795;DHT22;9021;50.882;4.326;2023-06-19T08:22:13;27.00;91.20
17795;DHT22;9021;50.882;4.326;2023-06-19T08:24:38;26.90;91.30
17795;DHT22;9021;50.882;4.326;2023-06-19T08:27:06;27.30;91.10
17795;DHT22;9021;50.882;4.326;2023-06-19T08:29:31;27.90;89.60
17795;DHT22;9021;50.882;4.326;2023-06-19T08:31:57;28.30;89.40
17795;DHT22;9021;50.882;4.326;2023-06-19T08:34:22;29.20;85.20
17795;DHT22;9021;50.882;4.326;2023-06-19T08:36:48;29.00;84.40
17795;DHT22;9021;50.882;4.326;2023-06-19T08:39:17;29.00;84.40
17795;DHT22;9021;50.882;4.326;2023-06-19T08:41:42;26.60;83.30
17795;DHT22;9021;50.882;4.326;2023-06-19T08:44:08;29.50;83.00
17795;DHT22;9021;50.882;4.326;2023-06-19T08:46:34;30.00;81.60
17795;DHT22;9021;50.882;4.326;2023-06-19T08:49:02;30.50;80.50
17795;DHT22;9021;50.882;4.326;2023-06-19T08:51:30;30.60;78.80
17795;DHT22;9021;50.882;4.326;2023-06-19T08:53:56;30.50;79.70
17795;DHT22;9021;50.882;4.326;2023-06-19T08:56:25;30.50;78.60
17795;DHT22;9021;50.882;4.326;2023-06-19T08:58:50;30.00;79.50
17795;DHT22;9021;50.882;4.326;2023-06-19T09:01:17;29.20;81.10
17795;DHT22;9021;50.882;4.326;2023-06-19T09:03:42;29.40;79.90
17795;DHT22;9021;50.882;4.326;2023-06-19T09:06:09;29.80;79.70
17795;DHT22;9021;50.882;4.326;2023-06-19T09:08:35;30.70;78.00
17795;DHT22;9021;50.882;4.326;2023-06-19T09:11:01;30.50;77.80
17795;DHT22;9021;50.882;4.326;2023-06-19T09:13:27;30.30;77.60
17795;DHT22;9021;50.882;4.326;2023-06-19T09:16:01;29.60;78.60
17795;DHT22;9021;50.882;4.326;2023-06-19T09:18:30;30.30;78.90
17795;DHT22;9021;50.882;4.326;2023-06-19T09:20:59;31.40;75.70
17795;DHT22;9021;50.882;4.326;2023-06-19T09:23:24;31.30;76.60
17795;DHT22;9021;50.882;4.326;2023-06-19T09:25:51;31.10;76.10
17795;DHT22;9021;50.882;4.326;2023-06-19T09:28:21;31.10;76.00
17795;DHT22;9021;50.882;4.326;2023-06-19T09:33:18;30.00;76.70
17795;DHT22;9021;50.882;4.326;2023-06-19T09:35:43;30.00;77.10
17795;DHT22;9021;50.882;4.326;2023-06-19T09:38:09;30.00;77.20
17795;DHT22;9021;50.882;4.326;2023-06-19T09:40:35;29.90;76.60
17795;DHT22;9021;50.882;4.326;2023-06-19T09:43:01;29.00;78.40
17795;DHT22;9021;50.882;4.326;2023-06-19T09:45:28;28.80;79.30
17795;DHT22;9021;50.882;4.326;2023-06-19T09:47:57;28.70;79.60
17795;DHT22;9021;50.882;4.326;2023-06-19T09:50:28;28.20;80.80
17795;DHT22;9021;50.882;4.326;2023-06-19T09:52:56;27.70;81.30
17795;DHT22;9021;50.882;4.326;2023-06-19T09:55:22;27.80;81.90
17795;DHT22;9021;50.882;4.326;2023-06-19T09:57:49;28.30;80.70
17795;DHT22;9021;50.882;4.326;2023-06-19T10:00:15;28.60;80.60
17795;DHT22;9021;50.882;4.326;2023-06-19T10:02:49;28.80;79.60
17795;DHT22;9021;50.882;4.326;2023-06-19T10:05:15;28.90;79.40
17795;DHT22;9021;50.882;4.326;2023-06-19T10:07:46;28.90;79.80
17795;DHT22;9021;50.882;4.326;2023-06-19T10:10:28;28.40;80.70
17795;DHT22;9021;50.882;4.326;2023-06-19T10:12:55;28.80;79.70
17795;DHT22;9021;50.882;4.326;2023-06-19T10:15:21;29.50;78.70
17795;DHT22;9021;50.882;4.326;2023-06-19T10:17:48;30.80;76.10
17795;DHT22;9021;50.882;4.326;2023-06-19T10:22:56;33.20;73.80
17795;DHT22;9021;50.882;4.326;2023-06-19T10:25:22;34.40;71.00
17795;DHT22;9021;50.882;4.326;2023-06-19T10:27:48;34.90;69.70
17795;DHT22;9021;50.882;4.326;2023-06-19T10:30:18;35.90;68.60
17795;DHT22;9021;50.882;4.326;2023-06-19T10:32:45;35.60;68.00
17795;DHT22;9021;50.882;4.326;2023-06-19T10:35:11;34.20;69.20
17795;DHT22;9021;50.882;4.326;2023-06-19T10:37:37;34.20;69.30
17795;DHT22;9021;50.882;4.326;2023-06-19T10:40:03;34.50;68.90
17795;DHT22;9021;50.882;4.326;2023-06-19T10:42:33;34.70;68.20
17795;DHT22;9021;50.882;4.326;2023-06-19T10:45:01;35.10;69.10
17795;DHT22;9021;50.882;4.326;2023-06-19T10:47:27;35.50;67.90
17795;DHT22;9021;50.882;4.326;2023-06-19T10:49:53;35.80;67.30
17795;DHT22;9021;50.882;4.326;2023-06-19T10:52:19;35.40;66.90
17795;DHT22;9021;50.882;4.326;2023-06-19T10:54:45;34.80;67.50
17795;DHT22;9021;50.882;4.326;2023-06-19T10:57:11;35.10;67.30
17795;DHT22;9021;50.882;4.326;2023-06-19T10:59:39;35.40;66.80
17795;DHT22;9021;50.882;4.326;2023-06-19T11:02:05;36.30;65.60
17795;DHT22;9021;50.882;4.326;2023-06-19T11:04:31;37.10;64.00
17795;DHT22;9021;50.882;4.326;2023-06-19T11:06:56;37.30;63.90
17795;DHT22;9021;50.882;4.326;2023-06-19T11:09:22;38.10;62.30
17795;DHT22;9021;50.882;4.326;2023-06-19T11:11:47;39.10;61.50
17795;DHT22;9021;50.882;4.326;2023-06-19T11:14:14;39.50;60.40
17795;DHT22;9021;50.882;4.326;2023-06-19T11:16:40;39.80;60.10
17795;DHT22;9021;50.882;4.326;2023-06-19T11:19:07;39.60;60.10
17795;DHT22;9021;50.882;4.326;2023-06-19T11:21:34;39.00;60.50
17795;DHT22;9021;50.882;4.326;2023-06-19T11:24:00;38.50;60.70
17795;DHT22;9021;50.882;4.326;2023-06-19T11:26:26;38.80;60.70
17795;DHT22;9021;50.882;4.326;2023-06-19T11:28:51;38.90;59.90
17795;DHT22;9021;50.882;4.326;2023-06-19T11:31:17;39.10;59.50
17795;DHT22;9021;50.882;4.326;2023-06-19T11:33:42;39.20;59.40
17795;DHT22;9021;50.882;4.326;2023-06-19T11:36:08;38.80;60.40
17795;DHT22;9021;50.882;4.326;2023-06-19T11:38:35;38.70;59.90
17795;DHT22;9021;50.882;4.326;2023-06-19T11:41:01;38.90;59.40
17795;DHT22;9021;50.882;4.326;2023-06-19T11:43:32;38.80;59.90
17795;DHT22;9021;50.882;4.326;2023-06-19T11:46:04;38.90;59.20
17795;DHT22;9021;50.882;4.326;2023-06-19T11:48:29;38.90;59.30
17795;DHT22;9021;50.882;4.326;2023-06-19T11:50:55;38.50;59.30
17795;DHT22;9021;50.882;4.326;2023-06-19T11:53:21;38.90;59.60
17795;DHT22;9021;50.882;4.326;2023-06-19T11:55:47;38.80;58.20
17795;DHT22;9021;50.882;4.326;2023-06-19T11:58:12;38.90;57.50
17795;DHT22;9021;50.882;4.326;2023-06-19T12:00:40;37.30;56.30
17795;DHT22;9021;50.882;4.326;2023-06-19T12:03:06;38.20;58.50
17795;DHT22;9021;50.882;4.326;2023-06-19T12:05:32;36.10;58.40
17795;DHT22;9021;50.882;4.326;2023-06-19T12:07:57;35.60;58.50
17795;DHT22;9021;50.882;4.326;2023-06-19T12:10:23;34.90;60.90
17795;DHT22;9021;50.882;4.326;2023-06-19T12:12:48;34.80;60.90
17795;DHT22;9021;50.882;4.326;2023-06-19T12:15:14;35.20;60.90
17795;DHT22;9021;50.882;4.326;2023-06-19T12:17:40;35.70;60.10
17795;DHT22;9021;50.882;4.326;2023-06-19T12:20:06;36.00;58.60
17795;DHT22;9021;50.882;4.326;2023-06-19T12:22:32;36.20;57.70
17795;DHT22;9021;50.882;4.326;2023-06-19T12:24:58;36.40;58.50
17795;DHT22;9021;50.882;4.326;2023-06-19T12:27:24;36.20;58.50
17795;DHT22;9021;50.882;4.326;2023-06-19T12:29:52;35.70;58.20
17795;DHT22;9021;50.882;4.326;2023-06-19T12:32:20;35.40;57.80
17795;DHT22;9021;50.882;4.326;2023-06-19T12:34:51;35.20;57.30
17795;DHT22;9021;50.882;4.326;2023-06-19T12:37:20;35.10;58.60
17795;DHT22;9021;50.882;4.326;2023-06-19T12:39:46;34.40;60.50
17795;DHT22;9021;50.882;4.326;2023-06-19T12:42:12;35.90;62.60
17795;DHT22;9021;50.882;4.326;2023-06-19T12:44:38;34.00;61.60
17795;DHT22;9021;50.882;4.326;2023-06-19T12:47:04;33.70;62.00
17795;DHT22;9021;50.882;4.326;2023-06-19T12:49:30;33.30;62.10
17795;DHT22;9021;50.882;4.326;2023-06-19T12:51:56;33.50;62.50
17795;DHT22;9021;50.882;4.326;2023-06-19T12:54:21;33.80;61.20
17795;DHT22;9021;50.882;4.326;2023-06-19T12:56:47;33.70;61.00
17795;DHT22;9021;50.882;4.326;2023-06-19T12:59:13;33.40;61.30
17795;DHT22;9021;50.882;4.326;2023-06-19T13:01:38;33.40;61.10
17795;DHT22;9021;50.882;4.326;2023-06-19T13:04:04;33.50;60.80
17795;DHT22;9021;50.882;4.326;2023-06-19T13:06:29;33.50;61.60
17795;DHT22;9021;50.882;4.326;2023-06-19T13:08:55;33.60;61.40
17795;DHT22;9021;50.882;4.326;2023-06-19T13:11:20;33.40;61.40
17795;DHT22;9021;50.882;4.326;2023-06-19T13:13:46;33.20;61.10
17795;DHT22;9021;50.882;4.326;2023-06-19T13:16:11;33.10;62.10
17795;DHT22;9021;50.882;4.326;2023-06-19T13:18:39;33.10;62.10
17795;DHT22;9021;50.882;4.326;2023-06-19T13:21:08;33.00;62.80
17795;DHT22;9021;50.882;4.326;2023-06-19T13:23:33;32.90;61.60
17795;DHT22;9021;50.882;4.326;2023-06-19T13:25:59;32.70;62.20
17795;DHT22;9021;50.882;4.326;2023-06-19T13:28:25;32.60;62.50
17795;DHT22;9021;50.882;4.326;2023-06-19T13:30:50;32.50;62.60
17795;DHT22;9021;50.882;4.326;2023-06-19T13:33:16;32.40;63.70
17795;DHT22;9021;50.882;4.326;2023-06-19T13:35:41;32.40;63.20
17795;DHT22;9021;50.882;4.326;2023-06-19T13:38:07;32.30;61.80
17795;DHT22;9021;50.882;4.326;2023-06-19T13:40:32;32.10;62.60
17795;DHT22;9021;50.882;4.326;2023-06-19T13:42:58;32.20;63.10
17795;DHT22;9021;50.882;4.326;2023-06-19T13:45:24;32.00;63.30
17795;DHT22;9021;50.882;4.326;2023-06-19T13:47:50;31.90;63.20
17795;DHT22;9021;50.882;4.326;2023-06-19T13:50:16;32.00;62.80
17795;DHT22;9021;50.882;4.326;2023-06-19T13:52:46;32.30;63.20
17795;DHT22;9021;50.882;4.326;2023-06-19T13:55:12;32.50;63.60
17795;DHT22;9021;50.882;4.326;2023-06-19T13:57:40;32.60;63.20
17795;DHT22;9021;50.882;4.326;2023-06-19T14:00:06;32.60;63.50
17795;DHT22;9021;50.882;4.326;2023-06-19T14:02:32;32.40;64.10
17795;DHT22;9021;50.882;4.326;2023-06-19T14:04:58;32.50;63.80
17795;DHT22;9021;50.882;4.326;2023-06-19T14:07:23;32.50;64.00
17795;DHT22;9021;50.882;4.326;2023-06-19T14:09:49;32.20;63.20
17795;DHT22;9021;50.882;4.326;2023-06-19T14:12:15;31.80;64.40
17795;DHT22;9021;50.882;4.326;2023-06-19T14:14:40;31.70;64.50
17795;DHT22;9021;50.882;4.326;2023-06-19T14:17:06;31.50;64.80
17795;DHT22;9021;50.882;4.326;2023-06-19T14:19:31;30.80;65.30
17795;DHT22;9021;50.882;4.326;2023-06-19T14:21:57;30.90;65.40
17795;DHT22;9021;50.882;4.326;2023-06-19T14:24:22;31.20;65.30
17795;DHT22;9021;50.882;4.326;2023-06-19T14:26:52;31.50;64.70
17795;DHT22;9021;50.882;4.326;2023-06-19T14:29:17;31.80;64.60
17795;DHT22;9021;50.882;4.326;2023-06-19T14:31:44;32.00;64.40
17795;DHT22;9021;50.882;4.326;2023-06-19T14:34:09;32.20;64.30
17795;DHT22;9021;50.882;4.326;2023-06-19T14:36:36;32.30;65.70
17795;DHT22;9021;50.882;4.326;2023-06-19T14:39:02;32.50;65.60
17795;DHT22;9021;50.882;4.326;2023-06-19T14:41:27;32.80;64.60
17795;DHT22;9021;50.882;4.326;2023-06-19T14:43:53;33.00;64.50
17795;DHT22;9021;50.882;4.326;2023-06-19T14:46:18;33.00;65.60
17795;DHT22;9021;50.882;4.326;2023-06-19T14:48:44;33.10;64.30
17795;DHT22;9021;50.882;4.326;2023-06-19T14:51:09;33.10;63.60
17795;DHT22;9021;50.882;4.326;2023-06-19T14:53:37;32.90;63.90
17795;DHT22;9021;50.882;4.326;2023-06-19T14:56:02;32.80;63.50
17795;DHT22;9021;50.882;4.326;2023-06-19T14:58:28;32.50;64.80
17795;DHT22;9021;50.882;4.326;2023-06-19T15:00:54;32.60;65.10
17795;DHT22;9021;50.882;4.326;2023-06-19T15:03:19;32.60;63.80
17795;DHT22;9021;50.882;4.326;2023-06-19T15:05:45;32.80;63.50
17795;DHT22;9021;50.882;4.326;2023-06-19T15:08:10;32.80;63.00
17795;DHT22;9021;50.882;4.326;2023-06-19T15:10:36;32.80;63.80
17795;DHT22;9021;50.882;4.326;2023-06-19T15:13:02;32.60;63.20
17795;DHT22;9021;50.882;4.326;2023-06-19T15:15:27;32.20;64.10
17795;DHT22;9021;50.882;4.326;2023-06-19T15:17:53;31.80;64.40
17795;DHT22;9021;50.882;4.326;2023-06-19T15:20:29;31.30;64.80
17795;DHT22;9021;50.882;4.326;2023-06-19T15:22:54;31.10;65.30
17795;DHT22;9021;50.882;4.326;2023-06-19T15:25:20;30.90;65.90
17795;DHT22;9021;50.882;4.326;2023-06-19T15:27:45;30.90;66.00
17795;DHT22;9021;50.882;4.326;2023-06-19T15:30:11;30.90;65.90
17795;DHT22;9021;50.882;4.326;2023-06-19T15:32:37;30.90;65.70
17795;DHT22;9021;50.882;4.326;2023-06-19T15:35:02;30.90;65.50
17795;DHT22;9021;50.882;4.326;2023-06-19T15:37:28;31.00;65.20
17795;DHT22;9021;50.882;4.326;2023-06-19T15:39:53;31.10;65.30
17795;DHT22;9021;50.882;4.326;2023-06-19T15:42:20;31.20;65.10